Time;durP1;ratioP1;P1;durP2;ratioP2;P2;SDS_P1;SDS_P2;PMS_P1;PMS_P2;Temp;Humidity;BMP_temperature;BMP_pressure;BME280_temperature;BME280_humidity;BME280_pressure;Samples;Min_cycle;Max_cycle;Signal;HPM_P1;HPM_P2
2021/04/20 03:14:15;;;;;;;27.35;22.75;;;;;;;8.55;100.00;99619.37;1713393;82;21134;-66
2021/04/20 03:16:44;;;;;;;26.50;22.77;;;;;;;8.57;100.00;99612.70;1692480;82;21225;-67
2021/04/20 03:19:12;;;;;;;30.82;24.47;;;;;;;8.57;100.00;99616.61;1659541;85;21205;-71
2021/04/20 03:21:41;;;;;;;29.40;24.57;;;;;;;8.58;100.00;99610.41;1657384;84;21242;-73
2021/04/20 03:24:30;;;;;;;33.30;26.02;;;;;;;8.59;100.00;99618.51;1711131;83;21390;-69
2021/04/20 03:26:58;;;;;;;27.17;22.45;;;;;;;8.59;100.00;99622.41;1725819;80;21069;-69
2021/04/20 03:29:27;;;;;;;28.23;23.40;;;;;;;8.59;100.00;99618.51;1724291;81;21529;-71
2021/04/20 03:31:55;;;;;;;31.45;24.63;;;;;;;8.59;100.00;99619.31;1717673;81;21555;-66
2021/04/20 03:34:36;;;;;;;30.62;25.00;;;;;;;8.58;100.00;99614.31;1714587;82;21901;-68
2021/04/20 03:37:09;;;;;;;30.65;24.87;;;;;;;8.56;100.00;99617.58;1719774;81;21213;-69
2021/04/20 03:39:47;;;;;;;27.33;21.37;;;;;;;8.57;100.00;99615.31;1820857;77;22790;-59
2021/04/20 03:42:22;;;;;;;26.62;21.12;;;;;;;8.51;100.00;99616.84;1796919;79;26924;-56
2021/04/20 03:44:54;;;;;;;29.82;24.55;;;;;;;8.49;100.00;99611.84;1736775;82;21275;-58
2021/04/20 03:47:37;;;;;;;30.45;23.57;;;;;;;8.49;100.00;99614.44;1757476;80;21651;-57
2021/04/20 03:50:09;;;;;;;29.57;22.25;;;;;;;8.51;100.00;99613.73;1769306;80;20892;-58
2021/04/20 03:52:44;;;;;;;28.35;22.52;;;;;;;8.51;100.00;99607.25;1766103;80;21105;-55
2021/04/20 03:55:15;;;;;;;27.82;23.10;;;;;;;8.51;100.00;99605.95;1771640;80;21065;-56
2021/04/20 03:57:45;;;;;;;33.78;23.87;;;;;;;8.51;100.00;99604.65;1771093;80;21124;-60
2021/04/20 04:00:15;;;;;;;29.07;23.02;;;;;;;8.51;100.00;99603.84;1709645;82;21439;-56
2021/04/20 04:02:46;;;;;;;28.60;20.48;;;;;;;8.51;100.00;99594.26;1734887;81;21012;-59
2021/04/20 04:05:17;;;;;;;25.65;21.42;;;;;;;8.52;100.00;99594.59;1730063;80;21195;-56
2021/04/20 04:07:49;;;;;;;28.17;23.35;;;;;;;8.56;100.00;99591.59;1748565;81;27218;-57
2021/04/20 04:10:17;;;;;;;29.77;23.22;;;;;;;8.59;100.00;99592.53;1757842;81;21208;-56
2021/04/20 04:12:48;;;;;;;25.88;21.82;;;;;;;8.62;100.00;99597.36;1744570;81;21057;-58
2021/04/20 04:15:17;;;;;;;24.25;19.52;;;;;;;8.64;100.00;99588.90;1760938;80;21553;-56
2021/04/20 04:17:46;;;;;;;28.27;21.42;;;;;;;8.65;100.00;99595.20;1748290;80;21168;-57
2021/04/20 04:20:14;;;;;;;22.55;20.15;;;;;;;8.65;100.00;99596.49;1750353;80;21729;-57
2021/04/20 04:22:53;;;;;;;25.05;21.20;;;;;;;8.65;100.00;99586.59;1760162;80;22262;-58
2021/04/20 04:25:26;;;;;;;23.55;19.12;;;;;;;8.67;100.00;99578.91;1768247;80;21030;-60
2021/04/20 04:27:54;;;;;;;23.38;19.82;;;;;;;8.72;100.00;99576.57;1756769;80;21177;-58
2021/04/20 04:30:22;;;;;;;24.07;19.42;;;;;;;8.76;100.00;99570.00;1762316;80;21010;-58
2021/04/20 04:32:50;;;;;;;24.53;20.70;;;;;;;8.81;100.00;99561.64;1757098;80;21061;-60
2021/04/20 04:35:19;;;;;;;23.90;19.90;;;;;;;8.88;100.00;99557.30;1753345;80;21330;-57
2021/04/20 04:37:48;;;;;;;23.53;18.50;;;;;;;8.94;100.00;99551.36;1756630;80;21210;-58
2021/04/20 04:40:18;;;;;;;23.97;19.67;;;;;;;9.01;100.00;99548.27;1755030;80;22247;-58
2021/04/20 04:42:46;;;;;;;25.37;20.17;;;;;;;9.08;100.00;99552.73;1767771;80;21229;-57
2021/04/20 04:45:16;;;;;;;32.87;21.47;;;;;;;9.12;100.00;99549.55;1768212;80;21521;-57
2021/04/20 04:47:45;;;;;;;25.17;19.53;;;;;;;9.20;100.00;99539.50;1766176;79;21510;-58
2021/04/20 04:50:15;;;;;;;25.00;18.47;;;;;;;9.25;100.00;99539.24;1740303;80;21880;-58
2021/04/20 04:52:45;;;;;;;28.85;19.67;;;;;;;9.30;100.00;99539.96;1767284;80;21594;-59
2021/04/20 04:55:16;;;;;;;24.12;20.32;;;;;;;9.35;100.00;99534.98;1727221;80;21148;-56
2021/04/20 04:57:49;;;;;;;26.23;20.80;;;;;;;9.38;100.00;99539.00;1758072;80;21065;-57
2021/04/20 05:00:19;;;;;;;25.57;20.73;;;;;;;9.39;100.00;99537.50;1772016;80;21375;-58
2021/04/20 05:02:47;;;;;;;24.67;20.33;;;;;;;9.41;100.00;99539.42;1746095;80;21738;-59
2021/04/20 05:05:16;;;;;;;22.30;18.97;;;;;;;9.40;100.00;99533.92;1766052;80;21509;-61
2021/04/20 05:07:44;;;;;;;25.40;19.17;;;;;;;9.42;100.00;99536.31;1757273;80;21904;-58
2021/04/20 05:10:14;;;;;;;26.30;20.13;;;;;;;9.45;100.00;99538.03;1760006;80;21659;-57
2021/04/20 05:12:42;;;;;;;26.27;20.33;;;;;;;9.45;100.00;99534.13;1776314;80;21252;-60
2021/04/20 05:15:15;;;;;;;25.17;18.27;;;;;;;9.43;100.00;99532.23;1773045;80;21448;-57
2021/04/20 05:17:44;;;;;;;24.53;19.63;;;;;;;9.44;100.00;99533.84;1772603;80;21861;-57
2021/04/20 05:20:16;;;;;;;23.40;18.43;;;;;;;9.46;100.00;99532.33;1763952;80;21283;-57
2021/04/20 05:22:47;;;;;;;22.50;18.60;;;;;;;9.49;100.00;99533.25;1776222;80;21514;-56
2021/04/20 05:25:19;;;;;;;24.50;19.17;;;;;;;9.55;100.00;99529.09;1770726;80;21787;-57
2021/04/20 05:27:51;;;;;;;25.82;17.92;;;;;;;9.57;100.00;99531.78;1779358;79;21676;-56
2021/04/20 05:30:21;;;;;;;;;;;;;;;9.59;100.00;99529.80;1760804;80;21019;-56
2021/04/20 05:32:53;;;;;;;24.57;17.03;;;;;;;9.60;100.00;99531.40;1777291;80;20251;-58
2021/04/20 05:35:24;;;;;;;25.33;17.27;;;;;;;9.60;100.00;99535.30;1763698;80;21324;-57
2021/04/20 05:37:54;;;;;;;23.40;18.77;;;;;;;9.60;100.00;99530.60;1765145;80;22191;-57
2021/04/20 05:40:31;;;;;;;26.90;17.80;;;;;;;9.58;100.00;99537.78;1721186;81;21514;-60
2021/04/20 05:42:58;;;;;;;23.80;18.10;;;;;;;9.57;100.00;99540.09;1763899;80;21323;-61
2021/04/20 05:45:27;;;;;;;25.77;17.93;;;;;;;9.56;100.00;99543.19;1755880;80;21576;-57
2021/04/20 05:47:55;;;;;;;23.27;15.80;;;;;;;9.51;100.00;99541.68;1759880;80;21987;-57
2021/04/20 05:50:27;;;;;;;21.68;14.83;;;;;;;9.49;100.00;99549.66;1767497;80;22789;-57
2021/04/20 05:52:58;;;;;;;21.57;16.07;;;;;;;9.47;100.00;99560.77;1761621;80;21089;-59
2021/04/20 05:55:28;;;;;;;22.40;16.50;;;;;;;9.48;100.00;99565.47;1761815;80;21425;-57
2021/04/20 05:57:56;;;;;;;21.10;16.37;;;;;;;9.49;100.00;99561.87;1756798;80;21411;-58
2021/04/20 06:00:26;;;;;;;20.93;15.87;;;;;;;9.50;100.00;99566.86;1731052;82;21441;-58
2021/04/20 06:02:56;;;;;;;18.93;15.57;;;;;;;9.50;100.00;99564.27;1730281;82;21615;-57
2021/04/20 06:05:27;;;;;;;16.90;15.13;;;;;;;9.56;100.00;99573.61;1764831;80;21392;-58
2021/04/20 06:08:01;;;;;;;21.62;16.50;;;;;;;9.57;100.00;99579.12;1759923;80;21199;-60
2021/04/20 06:10:31;;;;;;;20.23;15.72;;;;;;;9.61;100.00;99580.33;1768680;80;21022;-60
2021/04/20 06:13:01;;;;;;;21.68;18.70;;;;;;;9.63;100.00;99575.75;1759121;80;21094;-58
2021/04/20 06:15:31;;;;;;;26.20;22.17;;;;;;;9.66;100.00;99574.04;1763360;80;21199;-58
2021/04/20 06:18:00;;;;;;;23.57;17.73;;;;;;;9.69;100.00;99571.86;1759662;80;21316;-62
2021/04/20 06:20:29;;;;;;;22.10;17.50;;;;;;;9.74;100.00;99572.60;1765101;80;21496;-57
2021/04/20 06:22:58;;;;;;;23.80;17.17;;;;;;;9.74;100.00;99574.70;1760190;80;22033;-57
2021/04/20 06:25:26;;;;;;;23.03;17.63;;;;;;;9.73;100.00;99571.77;1767347;80;21798;-58
2021/04/20 06:27:54;;;;;;;24.30;18.17;;;;;;;9.72;100.00;99570.67;1721796;80;22407;-58
2021/04/20 06:30:24;;;;;;;21.47;17.30;;;;;;;9.73;100.00;99574.37;1746945;80;21257;-61
2021/04/20 06:32:52;;;;;;;17.73;15.07;;;;;;;9.70;100.00;99570.08;1759334;80;21789;-60
2021/04/20 06:35:22;;;;;;;22.00;17.60;;;;;;;9.65;100.00;99569.84;1754744;80;21411;-61
2021/04/20 06:37:52;;;;;;;22.77;18.57;;;;;;;9.60;100.00;99572.23;1753375;80;21352;-62
2021/04/20 06:40:29;;;;;;;21.93;17.20;;;;;;;9.50;100.00;99560.36;1787777;78;21471;-65
2021/04/20 06:43:04;;;;;;;21.03;16.70;;;;;;;9.45;100.00;99565.34;1780598;79;21372;-62
2021/04/20 06:45:43;;;;;;;19.73;16.87;;;;;;;9.41;100.00;99569.33;1780994;79;21315;-62
2021/04/20 06:48:37;;;;;;;22.80;18.80;;;;;;;9.35;100.00;99566.19;1783913;79;21361;-61
2021/04/20 06:51:09;;;;;;;22.73;16.77;;;;;;;9.30;100.00;99559.47;1730926;80;21725;-61
2021/04/20 06:53:39;;;;;;;19.87;16.23;;;;;;;9.31;100.00;99556.36;1746981;81;21314;-63
2021/04/20 06:56:19;;;;;;;22.90;17.70;;;;;;;9.33;100.00;99551.28;1733667;82;21426;-62
2021/04/20 06:59:11;;;;;;;20.30;14.60;;;;;;;9.39;100.00;99558.30;1731625;82;21058;-63
2021/04/20 07:01:47;;;;;;;22.37;17.03;;;;;;;9.45;100.00;99548.94;1776844;79;21597;-61
2021/04/20 07:04:43;;;;;;;18.73;16.63;;;;;;;9.57;100.00;99547.89;1779525;79;21464;-61
2021/04/20 07:07:43;;;;;;;20.50;16.50;;;;;;;9.68;100.00;99549.44;1783709;79;22417;-62
2021/04/20 07:10:34;;;;;;;18.27;15.57;;;;;;;9.80;100.00;99548.88;1783138;79;21403;-64
2021/04/20 07:13:13;;;;;;;16.53;14.60;;;;;;;9.89;100.00;99532.11;1801427;78;22051;-61
2021/04/20 07:15:58;;;;;;;18.73;16.07;;;;;;;9.88;100.00;99529.98;1778517;78;21077;-64
2021/04/20 07:18:50;;;;;;;20.07;15.13;;;;;;;9.97;100.00;99526.72;1790045;79;21181;-62
2021/04/20 07:21:50;;;;;;;;;;;;;;;10.07;100.00;99517.20;1796091;79;21118;-63
2021/04/20 07:24:21;;;;;;;17.20;14.83;;;;;;;10.24;100.00;99510.13;1777774;79;20554;-61
2021/04/20 07:27:30;;;;;;;17.40;14.40;;;;;;;10.35;100.00;99491.84;1730827;82;21249;-63
2021/04/20 07:30:18;;;;;;;18.03;14.73;;;;;;;10.47;100.00;99479.02;1721530;82;21714;-63
2021/04/20 07:33:26;;;;;;;16.93;14.30;;;;;;;10.61;100.00;99474.60;1713320;80;21352;-61
2021/04/20 07:36:15;;;;;;;16.53;13.43;;;;;;;10.79;100.00;99468.23;1735514;82;21119;-64
2021/04/20 07:39:10;;;;;;;18.60;15.73;;;;;;;10.99;100.00;99466.91;1717911;81;21126;-61
2021/04/20 07:42:24;;;;;;;17.73;14.57;;;;;;;11.09;100.00;99462.05;1736502;82;21417;-59
2021/04/20 07:45:16;;;;;;;15.47;13.67;;;;;;;11.19;100.00;99466.84;1723537;82;21606;-61
2021/04/20 07:47:48;;;;;;;19.25;15.70;;;;;;;11.21;100.00;99472.64;1716765;82;21754;-60
2021/04/20 07:50:21;;;;;;;14.30;12.80;;;;;;;11.13;100.00;99458.52;1735010;80;21148;-61
2021/04/20 07:53:19;;;;;;;16.13;13.53;;;;;;;11.13;100.00;99458.52;1717892;82;21627;-62
2021/04/20 07:56:10;;;;;;;15.10;13.17;;;;;;;11.18;100.00;99439.16;1731696;82;21343;-64
2021/04/20 07:58:43;;;;;;;17.27;14.63;;;;;;;11.18;100.00;99439.16;1740363;80;21563;-60
2021/04/20 08:01:53;;;;;;;17.23;14.93;;;;;;;11.25;100.00;99439.94;1764410;80;22298;-63
2021/04/20 08:04:46;;;;;;;15.93;13.77;;;;;;;11.34;100.00;99433.98;1760295;80;21333;-60
2021/04/20 08:07:45;;;;;;;16.47;14.77;;;;;;;11.45;100.00;99423.67;1707353;81;21323;-60
2021/04/20 08:10:15;;;;;;;21.67;15.00;;;;;;;11.50;100.00;99423.05;1695002;82;21421;-59
2021/04/20 08:13:14;;;;;;;18.27;15.53;;;;;;;11.43;100.00;99419.16;1706550;82;21407;-60
2021/04/20 08:15:59;;;;;;;15.97;14.17;;;;;;;11.41;100.00;99417.78;1715645;83;22615;-60
2021/04/20 08:18:36;;;;;;;17.63;15.70;;;;;;;11.41;100.00;99413.36;1725939;82;21993;-59
2021/04/20 08:21:07;;;;;;;16.80;14.97;;;;;;;11.41;100.00;99415.97;1705298;82;21880;-59
2021/04/20 08:23:38;;;;;;;16.10;14.40;;;;;;;11.42;100.00;99404.52;1762221;80;22111;-61
2021/04/20 08:26:14;;;;;;;19.60;16.13;;;;;;;11.47;100.00;99394.75;1768193;80;21258;-60
2021/04/20 08:29:04;;;;;;;18.73;16.57;;;;;;;11.47;100.00;99394.75;1700979;84;22123;-63
2021/04/20 08:31:56;;;;;;;20.37;15.63;;;;;;;11.47;100.00;99396.56;1763147;80;21503;-60
2021/04/20 08:34:43;;;;;;;19.17;17.10;;;;;;;11.45;100.00;99387.65;1771696;80;21617;-61
2021/04/20 08:37:36;;;;;;;18.27;16.13;;;;;;;11.48;100.00;99385.11;1763045;79;21458;-60
2021/04/20 08:40:16;;;;;;;18.57;16.50;;;;;;;11.46;100.00;99378.80;1755431;80;22039;-61
2021/04/20 08:43:14;;;;;;;18.70;14.58;;;;;;;11.46;100.00;99378.80;1768385;80;21610;-61
2021/04/20 08:46:23;;;;;;;16.50;14.53;;;;;;;11.36;100.00;99374.54;1765285;80;20986;-62
2021/04/20 08:49:16;;;;;;;16.80;14.97;;;;;;;11.36;100.00;99374.54;1772887;80;21984;-66
2021/04/20 08:52:01;;;;;;;17.97;14.50;;;;;;;11.29;100.00;99375.91;1772117;80;21851;-63
2021/04/20 08:55:08;;;;;;;18.43;14.27;;;;;;;11.17;100.00;99365.80;1750877;79;21319;-68
2021/04/20 08:57:59;;;;;;;16.30;13.73;;;;;;;11.17;100.00;99365.80;1759221;80;22530;-62
2021/04/20 09:00:41;;;;;;;15.90;14.20;;;;;;;11.14;100.00;99367.05;1758289;80;21959;-63
2021/04/20 09:03:27;;;;;;;16.00;13.53;;;;;;;11.09;100.00;99360.84;1756143;80;21124;-62
2021/04/20 09:06:06;;;;;;;15.40;12.50;;;;;;;11.07;100.00;99362.87;1767357;80;21558;-62
2021/04/20 09:08:40;;;;;;;16.07;13.03;;;;;;;11.04;100.00;99358.06;1763671;80;21870;-65
2021/04/20 09:11:28;;;;;;;14.73;12.23;;;;;;;11.01;100.00;99357.97;1737192;80;21604;-66
2021/04/20 09:14:33;;;;;;;16.20;12.30;;;;;;;11.02;100.00;99356.16;1759686;80;21500;-63
2021/04/20 09:17:08;;;;;;;15.23;13.27;;;;;;;11.02;100.00;99350.94;1751205;80;21797;-64
2021/04/20 09:19:50;;;;;;;14.43;12.20;;;;;;;11.16;100.00;99334.22;1758611;80;21452;-66
2021/04/20 09:22:48;;;;;;;;;;;;;;;11.16;100.00;99334.22;1763186;80;22596;-64
2021/04/20 09:25:25;;;;;;;13.93;10.90;;;;;;;11.32;100.00;99332.41;1772026;80;21436;-63
2021/04/20 09:28:27;;;;;;;14.13;11.70;;;;;;;11.32;100.00;99332.41;1770895;80;22046;-64
2021/04/20 09:30:57;;;;;;;;;;;;;;;11.45;100.00;99325.02;1768952;80;21274;-63
2021/04/20 09:33:43;;;;;;;13.67;11.13;;;;;;;11.54;100.00;99316.42;1760161;80;20989;-65
2021/04/20 09:36:12;;;;;;;13.17;11.63;;;;;;;11.60;100.00;99309.06;1759390;80;21383;-64
2021/04/20 09:38:45;;;;;;;12.80;10.23;;;;;;;11.62;100.00;99316.95;1770240;80;22745;-69
2021/04/20 09:41:14;;;;;;;12.90;9.80;;;;;;;11.60;100.00;99310.36;1766565;80;21497;-63
2021/04/20 09:44:41;;;;;;;8.80;7.90;;;;;;;11.45;100.00;99301.02;1769802;80;21120;-63
2021/04/20 09:47:45;;;;;;;10.27;7.83;;;;;;;11.45;100.00;99301.02;1768577;79;21496;-62
2021/04/20 09:51:01;;;;;;;11.90;9.63;;;;;;;11.33;100.00;99280.55;1670798;84;21475;-63
2021/04/20 09:54:22;;;;;;;11.60;8.77;;;;;;;11.33;100.00;99274.53;1664484;82;21571;-65
2021/04/20 09:57:15;;;;;;;8.57;7.53;;;;;;;11.33;100.00;99274.53;1587435;88;21658;-63
2021/04/20 09:59:57;;;;;;;8.63;7.70;;;;;;;11.27;100.00;99287.90;1580696;88;21553;-61
2021/04/20 10:02:40;;;;;;;7.90;7.10;;;;;;;11.22;100.00;99285.64;1575220;88;21957;-63
2021/04/20 10:05:37;;;;;;;9.70;8.17;;;;;;;11.14;100.00;99286.19;1584596;88;21254;-68
2021/04/20 10:08:38;;;;;;;9.17;7.80;;;;;;;11.07;100.00;99292.45;1579115;88;22814;-62
2021/04/20 10:11:24;;;;;;;9.80;7.42;;;;;;;10.98;100.00;99281.95;1583089;88;21610;-62
2021/04/20 10:14:22;;;;;;;9.17;7.50;;;;;;;10.94;100.00;99259.41;1826207;77;23205;-68
2021/04/20 10:17:16;;;;;;;11.05;7.78;;;;;;;10.88;100.00;99248.02;1801075;78;21013;-59
2021/04/20 10:19:50;;;;;;;;;;;;;;;10.88;100.00;99254.55;1806697;78;21195;-60
2021/04/20 10:22:47;;;;;;;12.50;7.90;;;;;;;10.90;100.00;99248.59;1790866;79;20158;-60
2021/04/20 10:25:44;;;;;;;9.90;7.90;;;;;;;10.87;100.00;99250.34;1743645;82;21428;-61
2021/04/20 10:28:31;;;;;;;8.53;7.17;;;;;;;10.88;100.00;99229.77;1714945;80;21274;-70
2021/04/20 10:31:02;;;;;;;9.27;7.37;;;;;;;10.96;100.00;99226.91;1762469;80;21323;-61
2021/04/20 10:33:30;;;;;;;8.48;6.97;;;;;;;11.02;100.00;99216.64;1756945;80;21247;-68
2021/04/20 10:36:00;;;;;;;10.27;7.50;;;;;;;11.07;100.00;99211.09;1730799;82;21733;-70
2021/04/20 10:38:33;;;;;;;10.10;6.87;;;;;;;11.16;100.00;99206.41;1767288;80;21462;-62
2021/04/20 10:41:02;;;;;;;8.87;6.73;;;;;;;11.18;100.00;99207.02;1744985;80;21954;-63
2021/04/20 10:43:31;;;;;;;8.17;6.30;;;;;;;11.09;100.00;99199.14;1747028;81;22083;-63
2021/04/20 10:46:07;;;;;;;11.40;6.87;;;;;;;11.03;100.00;99195.58;1713475;82;21867;-61
2021/04/20 10:48:36;;;;;;;8.13;5.53;;;;;;;10.95;100.00;99184.11;1741431;80;21466;-62
2021/04/20 10:51:05;;;;;;;7.87;6.20;;;;;;;10.95;100.00;99184.11;1738571;81;21599;-69
2021/04/20 10:53:35;;;;;;;7.87;6.50;;;;;;;10.90;100.00;99177.41;1743744;81;21530;-71
2021/04/20 10:56:12;;;;;;;8.30;6.37;;;;;;;10.88;100.00;99170.32;1734212;80;22875;-63
2021/04/20 10:58:45;;;;;;;8.07;6.67;;;;;;;10.85;100.00;99156.40;1762585;79;21781;-65
2021/04/20 11:01:15;;;;;;;7.03;5.87;;;;;;;10.82;100.00;99147.69;1713318;82;21386;-64
2021/04/20 11:03:46;;;;;;;8.97;6.67;;;;;;;10.79;100.00;99144.99;1726190;81;21335;-65
2021/04/20 11:07:11;;;;;;;8.30;7.33;;;;;;;10.76;100.00;99137.62;1719873;81;21864;-67
2021/04/20 11:09:41;;;;;;;7.83;6.03;;;;;;;10.74;100.00;99140.13;1734116;82;21149;-65
2021/04/20 11:12:18;;;;;;;10.37;7.37;;;;;;;10.70;100.00;99147.58;1731133;81;21400;-76
2021/04/20 11:14:49;;;;;;;9.10;7.17;;;;;;;10.69;100.00;99161.63;1787275;79;21747;-66
2021/04/20 11:17:49;;;;;;;10.18;7.03;;;;;;;10.67;100.00;99140.97;1791684;79;21824;-63
2021/04/20 11:20:51;;;;;;;13.33;7.73;;;;;;;10.66;100.00;99125.04;1722068;82;21014;-68
2021/04/20 11:23:25;;;;;;;9.93;8.17;;;;;;;10.66;100.00;99113.82;1742567;81;21246;-74
2021/04/20 11:26:10;;;;;;;8.23;7.33;;;;;;;10.69;100.00;99114.20;1705424;82;21300;-64
2021/04/20 11:28:56;;;;;;;10.90;7.90;;;;;;;10.74;100.00;99097.12;1718847;82;21366;-63
2021/04/20 11:31:40;;;;;;;10.37;7.80;;;;;;;10.77;100.00;99091.49;1730223;82;21897;-65
2021/04/20 11:34:25;;;;;;;10.47;8.33;;;;;;;10.78;100.00;99090.48;1754990;81;21423;-64
2021/04/20 11:37:05;;;;;;;9.23;8.20;;;;;;;10.79;100.00;99073.31;1711321;81;21478;-66
2021/04/20 11:39:51;;;;;;;10.83;8.53;;;;;;;10.78;100.00;99074.33;1734474;82;21376;-65
2021/04/20 11:42:30;;;;;;;9.83;7.80;;;;;;;10.76;100.00;99080.75;1754694;81;21965;-64
2021/04/20 11:47:59;;;;;;;10.87;8.27;;;;;;;10.78;100.00;99073.02;1840310;76;22336;-73
2021/04/20 11:50:33;;;;;;;9.40;7.73;;;;;;;10.73;100.00;99089.02;1733963;80;21163;-64
2021/04/20 11:53:08;;;;;;;9.80;8.47;;;;;;;10.70;100.00;99090.23;1767376;80;22114;-63
2021/04/20 11:55:43;;;;;;;10.30;8.40;;;;;;;10.69;100.00;99079.52;1749702;79;21439;-64
2021/04/20 11:58:27;;;;;;;11.07;7.73;;;;;;;10.67;100.00;99062.78;1757602;81;21282;-63
2021/04/20 12:00:59;;;;;;;12.90;7.80;;;;;;;10.64;100.00;99061.89;1746594;80;21372;-74
2021/04/20 12:03:31;;;;;;;10.97;7.23;;;;;;;10.62;100.00;99068.34;1727808;81;22905;-64
2021/04/20 12:06:00;;;;;;;9.23;7.70;;;;;;;10.61;100.00;99069.37;1732517;80;21355;-64
2021/04/20 12:08:38;;;;;;;9.87;8.00;;;;;;;10.64;100.00;99054.59;1736122;81;21207;-64
2021/04/20 12:11:09;;;;;;;9.50;7.90;;;;;;;10.67;100.00;99046.34;1700060;81;22760;-65
2021/04/20 12:13:40;;;;;;;8.50;7.00;;;;;;;10.70;100.00;99051.94;1741700;80;21433;-63
2021/04/20 12:16:10;;;;;;;10.00;7.28;;;;;;;10.71;100.00;99038.39;1739527;80;21872;-61
2021/04/20 12:18:41;;;;;;;8.17;7.13;;;;;;;10.69;100.00;99042.53;1738269;79;21384;-64
2021/04/20 12:21:28;;;;;;;8.17;6.83;;;;;;;10.69;100.00;99039.92;1712451;80;21394;-75
2021/04/20 12:23:59;;;;;;;8.13;7.00;;;;;;;10.69;100.00;99036.52;1772739;79;21283;-72
2021/04/20 12:26:29;;;;;;;7.60;6.65;;;;;;;10.74;100.00;99034.06;1741967;80;21840;-76
2021/04/20 12:29:00;;;;;;;7.78;6.53;;;;;;;10.79;100.00;99036.02;1760803;79;21237;-65
2021/04/20 12:31:31;;;;;;;7.75;6.28;;;;;;;10.79;100.00;99028.20;1712073;82;21213;-65
2021/04/20 12:33:59;;;;;;;;;;;;;;;10.81;100.00;99038.72;1758073;79;20949;-72
2021/04/20 12:36:32;;;;;;;10.50;9.23;;;;;;;10.88;100.00;99051.19;1736438;81;20245;-66
2021/04/20 12:39:02;;;;;;;10.23;7.87;;;;;;;10.95;100.00;99055.84;1774821;79;21346;-65
2021/04/20 12:41:32;;;;;;;7.80;6.58;;;;;;;11.03;100.00;99053.97;1742448;81;21782;-70
2021/04/20 12:44:27;;;;;;;8.43;5.75;;;;;;;11.11;100.00;99040.66;1755141;79;21781;-70
2021/04/20 12:46:55;;;;;;;7.20;5.90;;;;;;;11.04;100.00;99027.67;1640687;85;21212;-64
2021/04/20 12:49:25;;;;;;;7.47;5.90;;;;;;;11.04;100.00;99027.67;1634520;86;22000;-65
2021/04/20 12:51:53;;;;;;;5.23;4.40;;;;;;;10.98;100.00;99033.73;1635856;85;21968;-66
2021/04/20 12:54:23;;;;;;;4.67;3.97;;;;;;;11.01;100.00;99015.06;1638949;86;22010;-67
2021/04/20 12:56:58;;;;;;;27.53;21.83;;;;;;;11.01;100.00;99015.06;1645575;85;21747;-65
2021/04/20 12:59:27;;;;;;;7.07;4.97;;;;;;;11.10;100.00;99004.65;1629601;85;21550;-66
2021/04/20 13:01:58;;;;;;;6.03;5.00;;;;;;;11.24;100.00;98987.03;1631619;85;21946;-67
2021/04/20 13:04:32;;;;;;;7.62;5.42;;;;;;;11.24;100.00;98987.03;1631456;86;22110;-65
2021/04/20 13:07:02;;;;;;;7.67;5.87;;;;;;;11.44;100.00;98987.61;1605683;86;21135;-67
2021/04/20 13:09:37;;;;;;;7.67;5.03;;;;;;;11.44;100.00;98987.61;1640686;85;21893;-71
2021/04/20 13:12:08;;;;;;;6.43;4.77;;;;;;;11.51;100.00;98984.89;1624025;86;22357;-67
2021/04/20 13:14:38;;;;;;;6.30;5.40;;;;;;;11.52;100.00;98982.59;1616070;85;23038;-68
2021/04/20 13:17:07;;;;;;;10.90;9.77;;;;;;;11.51;100.00;98981.49;1621845;85;21843;-66
2021/04/20 13:19:38;;;;;;;8.53;6.27;;;;;;;11.55;100.00;98963.06;1620055;86;22246;-66
2021/04/20 13:22:07;;;;;;;6.70;5.75;;;;;;;11.60;100.00;98971.05;1619446;86;23274;-62
2021/04/20 13:24:37;;;;;;;6.07;4.87;;;;;;;11.91;100.00;98964.31;1594973;86;21123;-63
2021/04/20 13:27:06;;;;;;;6.27;5.27;;;;;;;11.91;100.00;98964.31;1608154;86;21641;-69
2021/04/20 13:29:35;;;;;;;5.53;4.77;;;;;;;12.11;100.00;98964.52;1590914;86;21839;-64
2021/04/20 13:32:06;;;;;;;7.73;5.43;;;;;;;12.29;100.00;98963.66;1618328;86;21929;-63
2021/04/20 13:34:42;;;;;;;8.05;4.80;;;;;;;12.45;100.00;98959.05;1620429;86;21957;-63
2021/04/20 13:37:28;;;;;;;6.83;5.10;;;;;;;12.64;100.00;98951.38;1622149;86;21177;-65
2021/04/20 13:40:01;;;;;;;6.53;5.13;;;;;;;12.78;100.00;98951.95;1620490;86;21600;-63
2021/04/20 13:42:30;;;;;;;6.27;5.20;;;;;;;12.84;100.00;98948.43;1625690;86;21870;-69
2021/04/20 13:45:06;;;;;;;7.43;5.30;;;;;;;12.93;100.00;98944.16;1625204;85;21255;-65
2021/04/20 13:47:35;;;;;;;6.70;6.00;;;;;;;13.07;100.00;98949.42;1611608;87;22146;-63
2021/04/20 13:50:08;;;;;;;6.03;5.33;;;;;;;13.18;100.00;98944.64;1618885;87;21049;-62
2021/04/20 13:52:47;;;;;;;6.43;5.53;;;;;;;13.27;100.00;98941.98;1642715;85;21069;-67
2021/04/20 13:55:20;;;;;;;7.60;5.20;;;;;;;13.36;100.00;98940.58;1659341;84;21240;-63
2021/04/20 13:57:57;;;;;;;6.23;5.57;;;;;;;13.38;100.00;98939.05;1623959;85;21088;-62
2021/04/20 14:00:34;;;;;;;6.47;5.83;;;;;;;13.33;100.00;98942.37;1620318;85;21303;-66
2021/04/20 14:03:05;;;;;;;5.93;5.33;;;;;;;13.30;100.00;98946.77;1614765;87;21709;-64
2021/04/20 14:05:36;;;;;;;5.95;5.25;;;;;;;13.21;100.00;98940.77;1645413;85;21523;-62
2021/04/20 14:08:05;;;;;;;8.95;6.80;;;;;;;13.13;100.00;98936.70;1645958;85;21108;-67
2021/04/20 14:10:36;;;;;;;8.40;7.00;;;;;;;13.07;100.00;98933.20;1645539;85;21263;-63
2021/04/20 14:13:12;;;;;;;7.97;6.03;;;;;;;13.07;100.00;98933.20;1651382;85;21265;-63
2021/04/20 14:15:41;;;;;;;6.50;5.63;;;;;;;13.04;100.00;98920.58;1647113;85;21698;-66
2021/04/20 14:18:15;;;;;;;8.17;6.60;;;;;;;13.03;100.00;98917.69;1646049;84;21222;-62
2021/04/20 14:20:47;;;;;;;7.90;7.03;;;;;;;12.97;100.00;98921.22;1646991;85;21155;-63
2021/04/20 14:23:18;;;;;;;7.75;6.90;;;;;;;12.95;100.00;98920.64;1645334;85;21223;-61
2021/04/20 14:25:50;;;;;;;7.87;6.95;;;;;;;12.97;100.00;98919.13;1647130;85;21412;-62
2021/04/20 14:28:31;;;;;;;8.37;7.50;;;;;;;13.14;100.00;98918.66;1646634;85;21252;-62
2021/04/20 14:30:59;;;;;;;10.10;8.68;;;;;;;13.08;100.00;98918.30;1650446;85;21935;-63
2021/04/20 14:33:32;;;;;;;9.30;8.03;;;;;;;13.05;100.00;98924.78;1644359;85;21509;-62
2021/04/20 14:36:02;;;;;;;10.63;7.87;;;;;;;13.05;100.00;98918.76;1641399;85;21290;-64
2021/04/20 14:38:36;;;;;;;8.63;7.73;;;;;;;13.07;100.00;98918.02;1661597;84;21382;-62
2021/04/20 14:41:07;;;;;;;10.57;9.57;;;;;;;13.05;100.00;98904.37;1619532;87;21227;-63
2021/04/20 14:43:36;;;;;;;11.40;9.38;;;;;;;13.03;100.00;98910.33;1662117;84;21426;-69
2021/04/20 14:46:05;;;;;;;9.93;8.40;;;;;;;13.01;100.00;98907.17;1615460;86;21248;-62
2021/04/20 14:48:34;;;;;;;9.60;8.60;;;;;;;12.99;100.00;98900.05;1628862;87;21154;-62
2021/04/20 14:51:04;;;;;;;10.17;8.67;;;;;;;12.97;100.00;98895.58;1629606;85;21231;-64
2021/04/20 14:53:33;;;;;;;9.50;8.60;;;;;;;12.95;100.00;98895.00;1645678;85;21184;-62
2021/04/20 14:56:04;;;;;;;10.77;9.67;;;;;;;12.93;100.00;98891.84;1627375;86;21170;-62
2021/04/20 14:58:38;;;;;;;11.08;9.93;;;;;;;12.90;100.00;98886.03;1637782;86;21274;-62
2021/04/20 15:01:14;;;;;;;11.10;8.80;;;;;;;12.89;100.00;98884.45;1594674;88;21562;-71
2021/04/20 15:03:45;;;;;;;13.43;10.40;;;;;;;12.86;100.00;98884.91;1610894;87;22457;-63
2021/04/20 15:06:24;;;;;;;;;;;;;;;12.85;100.00;98869.46;1644763;86;22608;-62
2021/04/20 15:09:14;;;;;;;12.07;9.83;;;;;;;12.81;100.00;98867.81;1636142;86;20137;-61
2021/04/20 15:12:05;;;;;;;9.63;6.53;;;;;;;12.74;100.00;98902.97;1634961;85;21179;-61
2021/04/20 15:14:37;;;;;;;8.10;5.33;;;;;;;12.57;100.00;98939.45;1634723;85;21207;-60
2021/04/20 15:17:09;;;;;;;10.83;5.17;;;;;;;11.93;100.00;98954.45;1640289;85;21243;-71
2021/04/20 15:19:41;;;;;;;6.22;4.00;;;;;;;11.34;100.00;98931.73;1630828;86;21965;-60
2021/04/20 15:22:13;;;;;;;6.17;3.40;;;;;;;10.90;100.00;98914.89;1641372;85;21094;-64